Torres, Brazil
Current Conditions -  °F | °C
As of 9:00 AM on Saturday 20 Dec 2014 (Local Time) from SBCM Reporting Station
Scattered Clouds Scattered Clouds  
Wind Chill: 75°   Ceiling: Unl
Heat Index: 75°   Visibility: 6mi
Dew Point: 68°   Wind: 2mph
Humidity: 78%   Direction: 220°SW
Pressure: 29.74"   Gusts: NA
Location:  29.34°S, 49.73°W
Report Text: SBCM 201100Z 22002KT 9999 SCT030 24/20 Q1007
Loading
Personal Weather Stations






























Interactive Weather Map New forecast layout! Learn more

10-Day Weather Forecast

Advertisements
Track Severe Weather on mobile